Airfield :
LOGIN :

Register | Disclaimer

   EN    FR    IT 

 










Legend :    VFR   Marginal VFR   IFR   Intensive IFR   Very Intensive IFR
Visi :
Ceiling :
>= 8 km
>= 3000ft
5 to 8 km
1000 to 3000 ft
1500m to 5 km
500 to 1000 ft
800 to 1500m
200 to 500 ft
< 800m
< 200 ft
Symbols :   Thunderstorms  Fog  Heavy snow  Heavy precipitations  Wind > 20 kt
SIGMETs :     Misc.  Thunderstorms  Icing  Turbulence  Mountain Waves  Volcanic Ashes







- Airport Elevation : 100 ft
- IATA code : DCI


LIED - Decimomannu Air Base

CURRENT METAR :
  • 241655Z 12017KT 9999 SCT025 18/14 Q1014 RMK SCT VIS MIN 9999 WIND THR35 12019KT WIND THR17 /////KT BLU

EXPIRED METARs :
  • 241555Z 13020KT 9999 SCT025 19/13 Q1015 RMK SCT VIS MIN 9999 WIND THR35 13020KT WIND THR17 /////KT BLU
  • 241455Z 14018KT 9999 SCT025 19/13 Q1015 RMK BKN SCT200 VIS MIN 9999 WIND THR35 14018KT WIND THR17 /////KT BLU

TAF TAF LIED
Valid from the 24 at 18:00 until the 25 at 03:00 UTC


241800Z 2418/2503 12020G30KT 9999 FEW025
No reported NOTAMs for that airfield.



MET'MAP, your aeronautical weather chart ! - Copyright ORBIFLY December 2007 - Disclaimer

ORBIFLY MET'MAP TEAM :

Programming & Development : Alexandra Zaïnal
Concept & Development : Baudouin d'Aumeries
Co-Development & Prog : Marc-Olivier Méhu
Technical & hardware support : Manuel Goepfert

Contact : metmap@orbifly.com




SOURCES & CREDITS :

   NOAA